Time;durP1;ratioP1;P1;durP2;ratioP2;P2;SDS_P1;SDS_P2;PMS_P1;PMS_P2;Temp;Humidity;BMP_temperature;BMP_pressure;BME280_temperature;BME280_humidity;BME280_pressure;Samples;Min_cycle;Max_cycle;Signal;HPM_P1;HPM_P2
2022/04/12 00:25:10;;;;;;;4.45;0.70;;;;;;;16.74;36.11;98813.84;5193385;27;20237;-68
2022/04/12 00:27:36;;;;;;;0.90;0.50;;;;;;;16.95;36.12;98808.88;5156833;27;20045;-62
2022/04/12 00:30:06;;;;;;;7.72;0.60;;;;;;;17.16;35.72;98803.69;5138800;27;20443;-65
2022/04/12 00:32:33;;;;;;;1.55;0.60;;;;;;;17.35;35.84;98785.44;5144388;27;20023;-64
2022/04/12 00:34:59;;;;;;;1.10;0.43;;;;;;;17.54;35.53;98776.03;5151004;27;20425;-64
2022/04/12 00:37:25;;;;;;;1.75;0.35;;;;;;;17.72;34.88;98772.16;5151289;27;20126;-63
2022/04/12 00:39:50;;;;;;;0.77;0.40;;;;;;;17.84;34.96;98768.81;5115644;27;20109;-63
2022/04/12 00:42:16;;;;;;;1.02;0.45;;;;;;;17.98;34.74;98769.00;5151581;27;20131;-64
2022/04/12 00:44:41;;;;;;;2.67;0.80;;;;;;;18.10;34.57;98785.41;5143963;27;20379;-64
2022/04/12 00:47:07;;;;;;;1.10;0.35;;;;;;;18.19;34.19;98792.31;5130763;28;20059;-64
2022/04/12 00:49:32;;;;;;;0.30;0.30;;;;;;;18.28;34.21;98774.28;5130755;28;20023;-64
2022/04/12 00:51:58;;;;;;;1.00;0.50;;;;;;;18.33;34.04;98774.53;5141313;27;20030;-65
2022/04/12 00:54:25;;;;;;;0.90;0.35;;;;;;;18.40;33.87;98769.25;5149750;27;20023;-62
2022/04/12 00:56:52;;;;;;;0.52;0.43;;;;;;;18.47;33.80;98772.00;5133246;27;20130;-65
2022/04/12 00:59:18;;;;;;;0.40;0.35;;;;;;;18.51;33.75;98760.69;5130987;27;20448;-64
2022/04/12 01:01:44;;;;;;;0.52;0.40;;;;;;;18.56;33.48;98760.13;5139449;27;20035;-65
2022/04/12 01:04:09;;;;;;;1.25;0.43;;;;;;;18.60;33.54;98766.75;5150300;27;20089;-64
2022/04/12 01:06:38;;;;;;;0.93;0.40;;;;;;;18.63;33.55;98761.03;5131736;27;20035;-64
2022/04/12 01:09:05;;;;;;;0.70;0.30;;;;;;;18.66;33.40;98760.66;5129936;27;20494;-65
2022/04/12 01:11:33;;;;;;;0.20;0.20;;;;;;;18.72;33.27;98759.03;5130497;27;20027;-64
2022/04/12 01:13:59;;;;;;;0.38;0.30;;;;;;;18.74;33.37;98754.31;5142917;27;20091;-65
2022/04/12 01:16:25;;;;;;;0.30;0.30;;;;;;;18.76;33.11;98744.22;5150224;27;20061;-65
2022/04/12 01:18:50;;;;;;;0.57;0.30;;;;;;;18.80;33.12;98752.72;5150295;27;20062;-65
2022/04/12 01:21:16;;;;;;;2.10;1.30;;;;;;;18.82;33.17;98753.34;5150575;27;20452;-64
2022/04/12 01:24:01;;;;;;;0.38;0.30;;;;;;;18.83;33.11;98750.47;5149764;27;20528;-64
2022/04/12 01:26:27;;;;;;;0.65;0.28;;;;;;;18.86;33.15;98743.88;5150782;27;20035;-64
2022/04/12 01:28:52;;;;;;;0.40;0.40;;;;;;;18.88;32.95;98742.69;5138879;27;20509;-65
2022/04/12 01:31:18;;;;;;;0.65;0.30;;;;;;;18.90;32.94;98734.44;5135654;27;20086;-65
2022/04/12 01:33:43;;;;;;;0.50;0.30;;;;;;;18.92;33.04;98738.56;5129721;27;20027;-65
2022/04/12 01:36:09;;;;;;;0.10;0.10;;;;;;;18.95;32.92;98734.72;5120596;27;20101;-64
2022/04/12 01:38:34;;;;;;;0.30;0.20;;;;;;;18.96;33.06;98727.50;5118466;27;20045;-66
2022/04/12 01:41:00;;;;;;;0.73;0.43;;;;;;;18.99;32.98;98725.25;5136449;27;20031;-65
2022/04/12 01:43:25;;;;;;;0.88;0.40;;;;;;;19.04;32.95;98724.69;5135772;27;20039;-64
2022/04/12 01:45:51;;;;;;;1.40;0.40;;;;;;;19.10;32.95;98731.94;5135972;27;20495;-64
2022/04/12 01:48:16;;;;;;;0.50;0.40;;;;;;;19.16;32.95;98724.94;5135772;27;20031;-66
2022/04/12 01:50:42;;;;;;;0.40;0.20;;;;;;;19.20;32.73;98719.00;5125983;27;20063;-63
2022/04/12 01:53:07;;;;;;;0.63;0.40;;;;;;;19.25;32.80;98720.25;5125540;27;20038;-65
2022/04/12 01:55:33;;;;;;;0.73;0.30;;;;;;;19.25;32.84;98712.22;5123251;27;20031;-63
2022/04/12 01:57:58;;;;;;;0.65;0.30;;;;;;;19.26;32.79;98720.06;5127867;27;20032;-64
2022/04/12 02:00:24;;;;;;;0.52;0.20;;;;;;;19.28;32.76;98717.19;5115305;28;20438;-63
2022/04/12 02:02:49;;;;;;;0.38;0.20;;;;;;;19.27;32.76;98716.34;5134317;27;20122;-64
2022/04/12 02:05:15;;;;;;;0.70;0.47;;;;;;;19.29;32.88;98708.94;5125411;27;20032;-63
2022/04/12 02:07:43;;;;;;;0.68;0.68;;;;;;;19.29;32.74;98703.56;5115606;28;20043;-63
2022/04/12 02:10:10;;;;;;;0.45;0.32;;;;;;;19.32;32.71;98711.22;5115177;28;20118;-64
2022/04/12 02:12:36;;;;;;;0.43;0.30;;;;;;;19.36;32.65;98711.66;5115441;28;20027;-63
2022/04/12 02:15:02;;;;;;;0.10;0.10;;;;;;;19.38;32.61;98723.00;5121604;27;20031;-63
2022/04/12 02:17:27;;;;;;;0.63;0.35;;;;;;;19.40;32.52;98722.84;5134421;27;20091;-63
2022/04/12 02:19:52;;;;;;;1.08;0.30;;;;;;;19.41;32.69;98714.56;5135071;27;20042;-63
2022/04/12 02:22:18;;;;;;;0.30;0.30;;;;;;;19.40;32.64;98718.28;5128466;27;20494;-63
2022/04/12 02:24:43;;;;;;;0.20;0.20;;;;;;;19.41;32.54;98698.47;5116102;27;20047;-64
2022/04/12 02:27:09;;;;;;;0.50;0.30;;;;;;;19.41;32.48;98677.03;5131466;27;20039;-64
2022/04/12 02:29:34;;;;;;;0.30;0.30;;;;;;;19.42;32.49;98665.25;5127509;27;20024;-64
2022/04/12 02:32:00;;;;;;;2.40;0.38;;;;;;;19.44;32.39;98679.31;5129913;27;20046;-64
2022/04/12 02:34:25;;;;;;;0.88;0.60;;;;;;;19.46;32.30;98688.00;5123573;27;20039;-64
2022/04/12 02:36:51;;;;;;;1.75;0.35;;;;;;;19.48;32.50;98702.00;5135874;27;20118;-64
2022/04/12 02:39:16;;;;;;;0.63;0.47;;;;;;;19.47;32.45;98702.22;5118357;27;20031;-64
2022/04/12 02:41:42;;;;;;;1.23;0.57;;;;;;;19.49;32.27;98706.34;5114597;28;20488;-65
2022/04/12 02:44:07;;;;;;;0.40;0.40;;;;;;;19.47;32.35;98691.50;5114636;27;20035;-64
2022/04/12 02:46:33;;;;;;;0.55;0.40;;;;;;;19.54;32.34;98695.03;5116424;27;20040;-64
2022/04/12 02:48:58;;;;;;;0.47;0.47;;;;;;;19.56;32.20;98705.56;5123068;27;20508;-64
2022/04/12 02:51:24;;;;;;;0.40;0.40;;;;;;;19.58;32.20;98704.31;5129760;27;20166;-63
2022/04/12 02:53:49;;;;;;;0.70;0.57;;;;;;;19.61;32.00;98703.94;5135099;27;20050;-64
2022/04/12 02:56:15;;;;;;;0.57;0.50;;;;;;;19.60;32.25;98702.28;5132178;27;20051;-63
2022/04/12 02:58:41;;;;;;;0.73;0.50;;;;;;;19.60;31.84;98704.97;5121352;27;20490;-63
2022/04/12 03:01:06;;;;;;;0.52;0.40;;;;;;;19.63;32.27;98704.56;5129450;27;20474;-62
2022/04/12 03:03:32;;;;;;;1.25;1.15;;;;;;;19.63;32.29;98709.94;5133795;27;20091;-64
2022/04/12 03:05:57;;;;;;;1.27;0.70;;;;;;;19.66;31.96;98708.69;5134847;27;20402;-64
2022/04/12 03:08:23;;;;;;;1.33;0.70;;;;;;;19.67;32.12;98719.25;5133923;27;20379;-64
2022/04/12 03:10:49;;;;;;;1.20;0.60;;;;;;;19.69;32.04;98715.53;5130711;27;20041;-64
2022/04/12 03:13:14;;;;;;;1.38;0.90;;;;;;;19.69;31.90;98718.22;5113877;28;20057;-63
2022/04/12 03:15:40;;;;;;;1.00;0.68;;;;;;;19.71;31.93;98708.94;5114403;28;20038;-64
2022/04/12 03:18:06;;;;;;;1.00;0.90;;;;;;;19.73;32.08;98714.94;5121183;27;20039;-66
2022/04/12 03:20:32;;;;;;;1.10;0.73;;;;;;;19.75;32.01;98698.63;5125642;27;20046;-65
2022/04/12 03:22:58;;;;;;;1.90;0.75;;;;;;;19.75;31.91;98688.72;5113443;28;20032;-65
2022/04/12 03:25:24;;;;;;;1.48;0.80;;;;;;;19.74;31.95;98688.91;5114214;28;20142;-64
2022/04/12 03:27:50;;;;;;;1.30;1.00;;;;;;;19.76;31.73;98687.69;5117142;27;20113;-65
2022/04/12 03:30:15;;;;;;;1.30;0.90;;;;;;;19.80;31.85;98693.47;5124213;27;20482;-65
2022/04/12 03:32:41;;;;;;;1.10;0.70;;;;;;;19.79;31.91;98700.69;5131069;27;20309;-65
2022/04/12 03:35:06;;;;;;;2.40;0.90;;;;;;;19.80;31.98;98694.28;5113904;28;20038;-64
2022/04/12 03:37:32;;;;;;;1.58;1.02;;;;;;;19.82;32.05;98702.97;5113442;28;20450;-65
2022/04/12 03:39:57;;;;;;;1.45;1.05;;;;;;;19.83;31.90;98691.22;5120538;27;20035;-63
2022/04/12 03:42:23;;;;;;;1.63;1.13;;;;;;;19.86;31.82;98686.47;5132428;27;20046;-63
2022/04/12 03:44:49;;;;;;;1.92;1.13;;;;;;;19.87;32.14;98697.03;5115204;27;20031;-64
2022/04/12 03:47:15;;;;;;;1.45;0.88;;;;;;;19.88;31.80;98698.69;5114057;27;20047;-65
2022/04/12 03:49:40;;;;;;;2.83;1.65;;;;;;;19.88;31.79;98701.38;5133390;27;20039;-63
2022/04/12 03:52:06;;;;;;;2.50;1.48;;;;;;;19.89;31.79;98705.72;5133270;27;20066;-65
2022/04/12 03:54:32;;;;;;;1.58;0.98;;;;;;;19.92;31.92;98709.88;5134081;27;20027;-65
2022/04/12 03:56:57;;;;;;;2.40;1.48;;;;;;;19.93;31.88;98712.34;5133756;27;20540;-63
2022/04/12 03:59:24;;;;;;;2.55;1.45;;;;;;;19.96;31.90;98721.84;5125611;27;20038;-64
2022/04/12 04:01:50;;;;;;;2.03;1.45;;;;;;;19.95;31.78;98715.66;5133943;27;20490;-64
2022/04/12 04:04:16;;;;;;;2.90;1.48;;;;;;;19.97;31.91;98718.13;5133151;27;20035;-64
2022/04/12 04:06:41;;;;;;;2.55;1.30;;;;;;;19.97;31.95;98724.34;5120428;27;20200;-64
2022/04/12 04:09:07;;;;;;;3.65;1.40;;;;;;;19.97;31.72;98718.13;5112965;28;20084;-64
2022/04/12 04:11:33;;;;;;;2.72;1.20;;;;;;;19.98;32.03;98714.41;5113558;28;20027;-64
2022/04/12 04:14:03;;;;;;;3.42;1.77;;;;;;;20.01;31.83;98722.06;5122775;27;20031;-64
2022/04/12 04:16:29;;;;;;;1.73;1.30;;;;;;;20.02;31.74;98726.41;5120234;27;20573;-64
2022/04/12 04:18:55;;;;;;;3.60;1.35;;;;;;;20.04;31.99;98723.50;5112007;28;20285;-63
2022/04/12 04:21:20;;;;;;;4.10;1.40;;;;;;;20.04;32.21;98718.97;5113469;28;20034;-64
2022/04/12 04:23:46;;;;;;;1.40;1.00;;;;;;;20.06;31.95;98727.66;5094506;28;20058;-64
2022/04/12 04:26:11;;;;;;;2.33;1.35;;;;;;;20.07;31.73;98723.91;5113155;28;20043;-64
2022/04/12 04:28:39;;;;;;;2.30;1.65;;;;;;;20.09;31.69;98724.56;5124403;28;20067;-64
2022/04/12 04:31:04;;;;;;;3.20;1.90;;;;;;;20.10;31.78;98715.47;5123328;28;20114;-65
2022/04/12 04:33:30;;;;;;;2.95;2.00;;;;;;;20.10;31.76;98709.28;5124504;28;20443;-64
2022/04/12 04:35:55;;;;;;;2.95;1.85;;;;;;;20.12;31.83;98717.97;5113036;28;20046;-64
2022/04/12 04:38:21;;;;;;;3.10;1.77;;;;;;;20.13;31.58;98707.00;5113850;28;20061;-63
2022/04/12 04:40:48;;;;;;;2.72;1.67;;;;;;;20.17;31.88;98709.28;5113222;28;20031;-64
2022/04/12 04:43:15;;;;;;;3.03;1.77;;;;;;;20.16;31.69;98707.63;5094306;28;20031;-63
2022/04/12 04:45:43;;;;;;;3.33;1.75;;;;;;;20.17;31.81;98710.09;5112659;28;20035;-63
2022/04/12 04:48:09;;;;;;;2.63;2.17;;;;;;;20.18;31.75;98706.38;5112521;28;20027;-63
2022/04/12 04:50:35;;;;;;;3.20;1.85;;;;;;;20.17;32.02;98728.91;5126107;28;20069;-64
2022/04/12 04:53:06;;;;;;;4.72;2.15;;;;;;;20.17;31.81;98704.72;5133118;28;20111;-64
2022/04/12 04:55:35;;;;;;;;;;;;;;;20.15;32.21;98708.66;5133629;28;20545;-64
2022/04/12 04:58:00;;;;;;;6.03;2.80;;;;;;;20.17;31.89;98718.16;5133355;28;19915;-65
2022/04/12 05:00:29;;;;;;;3.35;2.00;;;;;;;20.20;31.94;98700.84;5113708;28;20383;-64
2022/04/12 05:02:57;;;;;;;3.83;2.40;;;;;;;20.22;31.92;98701.47;5117852;28;20031;-64
2022/04/12 05:05:22;;;;;;;4.30;2.55;;;;;;;20.24;31.79;98691.31;5120739;28;20114;-65
2022/04/12 05:07:50;;;;;;;5.35;2.55;;;;;;;20.27;31.90;98691.75;5112637;28;20546;-65
2022/04/12 05:10:17;;;;;;;4.43;2.53;;;;;;;20.32;31.76;98696.50;5113482;28;20035;-65
2022/04/12 05:12:43;;;;;;;3.97;2.60;;;;;;;20.31;31.67;98684.09;5117804;27;20038;-65
2022/04/12 05:15:09;;;;;;;4.10;2.13;;;;;;;20.31;31.83;98689.47;5137058;27;20109;-64
2022/04/12 05:17:35;;;;;;;4.25;2.63;;;;;;;20.33;31.89;98695.47;5133936;27;20027;-64
2022/04/12 05:20:01;;;;;;;4.43;3.08;;;;;;;20.34;31.76;98702.50;5115446;27;20437;-64
2022/04/12 05:22:27;;;;;;;5.57;3.70;;;;;;;20.36;31.87;98705.81;5116312;28;20028;-64
2022/04/12 05:24:53;;;;;;;5.13;2.60;;;;;;;20.37;31.74;98699.38;5121922;27;20047;-63
2022/04/12 05:27:20;;;;;;;5.68;2.78;;;;;;;20.39;32.04;98713.44;5132382;27;20091;-65
2022/04/12 05:29:45;;;;;;;4.22;2.28;;;;;;;20.40;31.88;98719.66;5136851;27;20450;-64
2022/04/12 05:32:13;;;;;;;3.30;2.17;;;;;;;20.40;32.13;98709.72;5116741;27;20035;-65
2022/04/12 05:34:46;;;;;;;4.05;2.22;;;;;;;20.43;32.04;98720.06;5133249;27;20031;-65
2022/04/12 05:37:12;;;;;;;5.82;3.08;;;;;;;20.43;31.95;98728.13;5117399;27;20039;-64
2022/04/12 05:39:37;;;;;;;3.20;2.22;;;;;;;20.44;31.93;98723.56;5131767;27;20363;-64
2022/04/12 05:42:03;;;;;;;3.95;2.58;;;;;;;20.46;31.89;98712.63;5115988;28;20480;-64
2022/04/12 05:44:33;;;;;;;6.50;2.85;;;;;;;20.49;32.09;98707.66;5128107;27;20118;-64
2022/04/12 05:47:03;;;;;;;4.90;2.60;;;;;;;20.50;32.16;98703.94;5135697;27;20047;-64
2022/04/12 05:49:29;;;;;;;5.28;2.83;;;;;;;20.54;32.00;98707.88;5135435;27;20053;-64
2022/04/12 05:51:55;;;;;;;4.30;2.47;;;;;;;20.58;31.86;98713.66;5131754;27;20031;-63
2022/04/12 05:54:22;;;;;;;5.30;3.10;;;;;;;20.61;31.96;98712.41;5115365;28;20050;-64
2022/04/12 05:56:47;;;;;;;4.40;3.17;;;;;;;20.66;32.03;98712.63;5115679;28;20050;-64
2022/04/12 05:59:13;;;;;;;5.30;3.13;;;;;;;20.68;31.98;98710.56;5128521;27;20458;-65
2022/04/12 06:01:38;;;;;;;3.53;2.70;;;;;;;20.70;32.14;98703.13;5135794;27;20038;-64
2022/04/12 06:04:05;;;;;;;5.47;3.25;;;;;;;20.74;31.97;98697.13;5135366;27;20125;-64
2022/04/12 06:06:32;;;;;;;3.78;2.55;;;;;;;20.76;32.21;98699.63;5135942;27;20031;-63
2022/04/12 06:08:58;;;;;;;5.07;3.17;;;;;;;20.80;32.07;98697.38;5122541;27;20502;-64
2022/04/12 06:11:23;;;;;;;5.38;3.10;;;;;;;20.81;32.15;98701.69;5116783;27;20071;-64
2022/04/12 06:13:49;;;;;;;4.97;3.03;;;;;;;20.83;32.19;98707.69;5126627;27;20054;-63
2022/04/12 06:16:14;;;;;;;4.65;3.10;;;;;;;20.85;32.15;98709.16;5135761;27;20031;-64
2022/04/12 06:18:40;;;;;;;4.95;2.88;;;;;;;20.88;31.93;98710.59;5135682;27;20035;-64
2022/04/12 06:21:05;;;;;;;5.90;3.78;;;;;;;20.86;32.14;98709.97;5132920;27;20038;-64
2022/04/12 06:23:31;;;;;;;4.97;3.30;;;;;;;20.86;32.20;98705.44;5135420;27;20047;-64
2022/04/12 06:25:56;;;;;;;5.65;3.33;;;;;;;20.87;32.13;98708.94;5132509;27;20058;-65
2022/04/12 06:28:22;;;;;;;6.72;3.42;;;;;;;20.86;32.25;98704.59;5114823;27;20505;-65
2022/04/12 06:30:51;;;;;;;5.03;3.22;;;;;;;20.88;32.38;98714.09;5126539;27;20035;-65
2022/04/12 06:33:16;;;;;;;7.68;4.63;;;;;;;20.88;32.47;98711.41;5135511;27;20027;-65
2022/04/12 06:35:42;;;;;;;5.47;3.42;;;;;;;20.89;32.36;98715.75;5135838;27;20525;-65
2022/04/12 06:38:09;;;;;;;4.72;3.55;;;;;;;20.90;32.36;98716.59;5129474;27;20537;-64
2022/04/12 06:40:35;;;;;;;4.43;2.85;;;;;;;20.90;32.52;98716.59;5114608;28;20498;-64
2022/04/12 06:43:01;;;;;;;5.28;3.22;;;;;;;20.95;32.31;98719.50;5114470;28;20086;-65
2022/04/12 06:45:26;;;;;;;7.80;3.50;;;;;;;20.95;32.41;98722.19;5114673;28;20059;-64
2022/04/12 06:47:58;;;;;;;5.35;3.85;;;;;;;20.98;32.41;98726.31;5114533;28;20036;-65
2022/04/12 06:50:25;;;;;;;4.82;3.70;;;;;;;21.01;32.61;98726.72;5117818;27;20076;-66
2022/04/12 06:52:52;;;;;;;4.72;3.85;;;;;;;21.01;32.65;98718.63;5134344;27;20030;-64
2022/04/12 06:55:18;;;;;;;6.50;3.92;;;;;;;21.04;32.30;98726.28;5135084;27;20102;-65
2022/04/12 06:57:43;;;;;;;6.53;3.70;;;;;;;21.07;32.30;98727.72;5126088;27;20503;-65
2022/04/12 07:00:10;;;;;;;6.30;4.22;;;;;;;21.10;32.34;98726.50;5114141;28;20074;-64
2022/04/12 07:02:36;;;;;;;6.43;4.03;;;;;;;21.09;32.51;98731.03;5117267;27;20027;-64
2022/04/12 07:05:06;;;;;;;7.90;4.43;;;;;;;21.11;32.41;98725.44;5132257;27;20035;-64
2022/04/12 07:07:31;;;;;;;7.15;4.82;;;;;;;21.10;32.13;98715.75;5134747;27;20117;-64
2022/04/12 07:09:57;;;;;;;11.75;5.57;;;;;;;21.11;32.40;98722.75;5123743;27;20058;-65
2022/04/12 07:12:24;;;;;;;5.15;3.63;;;;;;;21.12;32.44;98724.41;5113504;28;20134;-64
2022/04/12 07:14:50;;;;;;;6.18;4.03;;;;;;;21.12;32.38;98727.09;5114256;28;20368;-64
2022/04/12 07:17:15;;;;;;;5.95;4.22;;;;;;;21.12;32.41;98725.25;5118716;27;20023;-64
2022/04/12 07:19:41;;;;;;;6.93;4.15;;;;;;;21.14;32.38;98733.94;5134055;27;20050;-64
2022/04/12 07:22:09;;;;;;;5.60;3.67;;;;;;;21.15;32.57;98726.69;5122293;27;20043;-65
2022/04/12 07:24:34;;;;;;;7.75;4.88;;;;;;;21.17;32.44;98735.38;5132279;27;20096;-66
2022/04/12 07:27:00;;;;;;;7.63;4.68;;;;;;;21.18;32.42;98734.34;5134821;27;20138;-65
2022/04/12 07:29:25;;;;;;;7.55;4.68;;;;;;;21.23;32.49;98739.09;5134240;27;20374;-65
2022/04/12 07:31:51;;;;;;;6.93;4.25;;;;;;;21.23;32.48;98737.25;5119390;27;20127;-66
2022/04/12 07:34:17;;;;;;;8.18;4.80;;;;;;;21.26;32.38;98739.50;5133140;27;20034;-65
2022/04/12 07:36:47;;;;;;;8.60;5.10;;;;;;;21.25;32.31;98735.13;5134272;27;20362;-65
2022/04/12 07:39:15;;;;;;;6.80;4.45;;;;;;;21.28;32.46;98736.59;5134236;27;20059;-65
2022/04/12 07:41:40;;;;;;;7.40;5.35;;;;;;;21.28;32.30;98740.09;5133901;27;20088;-64
2022/04/12 07:44:06;;;;;;;6.03;4.57;;;;;;;21.29;32.50;98741.75;5117731;27;20035;-65
2022/04/12 07:46:32;;;;;;;8.60;4.65;;;;;;;21.30;32.52;98754.19;5123804;27;20443;-65
2022/04/12 07:48:57;;;;;;;6.65;4.50;;;;;;;21.29;32.52;98744.44;5113273;28;20043;-66
2022/04/12 07:51:23;;;;;;;7.10;5.20;;;;;;;21.31;32.46;98741.56;5113618;28;20039;-66
2022/04/12 07:53:49;;;;;;;9.30;4.93;;;;;;;21.33;32.28;98748.38;5113155;28;20080;-65
2022/04/12 07:56:15;;;;;;;6.57;4.90;;;;;;;21.36;32.45;98754.38;5126240;27;20038;-65
2022/04/12 07:58:40;;;;;;;6.13;4.50;;;;;;;21.37;32.45;98745.28;5113112;27;20126;-65
2022/04/12 08:01:06;;;;;;;7.60;5.70;;;;;;;21.40;32.43;98763.66;5113503;28;20039;-64
2022/04/12 08:03:31;;;;;;;8.55;6.00;;;;;;;21.43;32.35;98765.94;5120484;27;20486;-64
2022/04/12 08:05:57;;;;;;;8.13;5.38;;;;;;;21.44;32.35;98760.38;5133607;27;20421;-65
2022/04/12 08:08:22;;;;;;;7.20;5.97;;;;;;;21.46;32.43;98754.75;5133557;27;20035;-65
2022/04/12 08:10:48;;;;;;;10.07;6.00;;;;;;;21.48;32.45;98756.19;5133398;27;20054;-64
2022/04/12 08:13:13;;;;;;;8.25;6.03;;;;;;;21.51;32.28;98754.97;5125363;27;20515;-65
2022/04/12 08:15:39;;;;;;;7.82;6.70;;;;;;;21.53;32.30;98754.75;5113317;28;20062;-64
2022/04/12 08:18:05;;;;;;;9.07;6.72;;;;;;;21.52;32.31;98751.25;5112708;28;20397;-65
2022/04/12 08:20:31;;;;;;;10.75;6.85;;;;;;;21.56;32.37;98747.06;5113317;28;20051;-64
2022/04/12 08:22:56;;;;;;;12.32;6.32;;;;;;;21.56;32.29;98739.00;5112622;28;20501;-65
2022/04/12 08:25:22;;;;;;;7.43;5.50;;;;;;;21.56;32.37;98738.19;5113060;28;20088;-65
2022/04/12 08:27:48;;;;;;;8.65;5.65;;;;;;;21.60;32.37;98751.03;5114185;28;20031;-65
2022/04/12 08:30:14;;;;;;;10.23;7.85;;;;;;;21.61;32.36;98754.56;5129764;28;20028;-65
2022/04/12 08:32:40;;;;;;;10.80;7.05;;;;;;;21.61;32.23;98749.19;5112958;28;20035;-64
2022/04/12 08:35:07;;;;;;;9.75;7.10;;;;;;;21.63;32.38;98733.63;5113035;28;20491;-65
2022/04/12 08:37:32;;;;;;;9.48;7.20;;;;;;;21.63;32.33;98731.75;5112870;28;20059;-65
2022/04/12 08:39:58;;;;;;;10.55;7.70;;;;;;;21.64;32.28;98746.03;5113505;28;20434;-65
2022/04/12 08:42:23;;;;;;;12.27;5.95;;;;;;;21.67;32.15;98742.94;5112986;28;20051;-66
2022/04/12 08:44:50;;;;;;;9.73;6.95;;;;;;;21.70;32.36;98741.66;5114036;27;20088;-65
2022/04/12 08:47:18;;;;;;;10.90;7.28;;;;;;;21.72;32.11;98745.81;5137560;27;20035;-64
2022/04/12 08:49:43;;;;;;;10.43;7.35;;;;;;;21.72;32.10;98739.59;5137557;27;20383;-65
2022/04/12 08:52:11;;;;;;;9.25;7.03;;;;;;;21.75;32.29;98731.94;5136882;27;20046;-65
2022/04/12 08:54:44;;;;;;;10.63;7.57;;;;;;;21.79;32.28;98735.00;5120701;27;20035;-65
2022/04/12 08:57:11;;;;;;;13.55;8.52;;;;;;;21.80;32.21;98733.97;5098372;28;20380;-64
2022/04/12 08:59:38;;;;;;;11.05;8.55;;;;;;;21.83;32.35;98740.78;5136180;27;20035;-65
2022/04/12 09:02:07;;;;;;;10.55;7.20;;;;;;;21.84;32.32;98731.69;5133429;27;20126;-65
2022/04/12 09:04:33;;;;;;;10.27;7.47;;;;;;;21.85;32.22;98727.94;5122041;27;20425;-65
2022/04/12 09:07:00;;;;;;;10.23;7.53;;;;;;;21.89;32.30;98742.66;5116388;27;20097;-64
2022/04/12 09:09:29;;;;;;;7.32;5.03;;;;;;;21.92;32.25;98748.41;5127940;27;20126;-65
2022/04/12 09:12:06;;;;;;;7.05;4.10;;;;;;;21.98;32.46;98762.88;5124884;27;20043;-64
2022/04/12 09:14:52;;;;;;;5.90;4.07;;;;;;;22.05;32.55;98757.47;5136447;27;20186;-63
2022/04/12 09:17:35;;;;;;;8.73;5.18;;;;;;;22.13;32.43;98761.78;5117608;27;20104;-65
2022/04/12 09:20:09;;;;;;;5.82;4.20;;;;;;;22.22;32.44;98765.88;5132320;27;20027;-64
2022/04/12 09:22:35;;;;;;;8.32;4.72;;;;;;;22.25;32.47;98771.66;5125768;27;20362;-65
2022/04/12 09:25:04;;;;;;;8.65;5.80;;;;;;;22.33;32.33;98764.34;5115975;28;20052;-64
2022/04/12 09:27:31;;;;;;;5.35;4.15;;;;;;;22.40;32.43;98765.97;5116568;27;20398;-65
2022/04/12 09:30:03;;;;;;;6.30;4.65;;;;;;;22.46;32.40;98763.50;5118440;27;20042;-65
2022/04/12 09:32:35;;;;;;;18.45;7.63;;;;;;;22.48;32.48;98762.22;5116412;27;20023;-66
2022/04/12 09:35:01;;;;;;;13.90;7.82;;;;;;;22.44;32.70;98760.19;5134248;27;20054;-65
2022/04/12 09:37:35;;;;;;;10.90;7.88;;;;;;;22.42;32.71;98767.66;5135640;27;20086;-62
2022/04/12 09:40:03;;;;;;;16.38;8.73;;;;;;;22.37;32.64;98763.72;5121006;27;20490;-65
2022/04/12 09:42:44;;;;;;;12.43;8.77;;;;;;;22.36;32.56;98767.44;5122410;27;20096;-64
2022/04/12 09:45:11;;;;;;;18.65;8.65;;;;;;;22.31;32.66;98764.59;5120212;27;20058;-65
2022/04/12 09:47:37;;;;;;;20.80;9.05;;;;;;;22.32;32.75;98773.47;5125379;27;20032;-63
2022/04/12 09:50:05;;;;;;;15.05;9.88;;;;;;;22.29;32.65;98771.22;5120314;27;20038;-63
2022/04/12 09:52:30;;;;;;;17.92;10.40;;;;;;;22.29;32.47;98765.81;5122453;27;20489;-63
2022/04/12 09:54:56;;;;;;;17.45;9.80;;;;;;;22.27;32.60;98773.31;5115867;28;20110;-63
2022/04/12 09:57:23;;;;;;;18.13;10.15;;;;;;;22.25;32.67;98774.38;5126407;27;20447;-63
2022/04/12 09:59:48;;;;;;;14.77;9.63;;;;;;;22.23;32.68;98776.44;5126438;27;20032;-62
2022/04/12 10:02:15;;;;;;;18.20;10.32;;;;;;;22.22;32.93;98776.66;5122124;27;20062;-63
2022/04/12 10:04:42;;;;;;;15.18;9.85;;;;;;;22.23;32.92;98781.00;5132395;27;20039;-64
2022/04/12 10:07:10;;;;;;;20.73;10.13;;;;;;;22.24;32.89;98778.09;5115815;28;20036;-65
2022/04/12 10:09:37;;;;;;;20.92;10.45;;;;;;;22.24;33.02;98780.78;5125575;27;20436;-64
2022/04/12 10:12:06;;;;;;;19.05;10.93;;;;;;;22.26;32.69;98783.25;5115121;28;20054;-64
2022/04/12 10:14:32;;;;;;;19.83;11.50;;;;;;;22.24;33.01;98777.25;5118877;27;21428;-64
2022/04/12 10:16:59;;;;;;;16.52;9.68;;;;;;;22.24;32.99;98791.56;5131474;27;20039;-64
2022/04/12 10:19:25;;;;;;;16.80;9.82;;;;;;;22.23;32.98;98789.06;5135001;27;20035;-63
2022/04/12 10:21:50;;;;;;;23.80;10.60;;;;;;;22.23;33.08;98797.16;5133730;27;20042;-68
2022/04/12 10:24:17;;;;;;;15.93;10.02;;;;;;;22.23;33.07;98797.16;5135331;27;20119;-64
2022/04/12 10:26:46;;;;;;;15.35;9.05;;;;;;;22.24;33.18;98798.81;5126656;27;20039;-64
2022/04/12 10:29:13;;;;;;;16.25;9.50;;;;;;;22.24;33.00;98805.06;5129147;27;20043;-65
2022/04/12 10:31:52;;;;;;;13.82;9.75;;;;;;;22.26;33.13;98799.44;5128592;27;20038;-63
2022/04/12 10:34:18;;;;;;;12.57;9.18;;;;;;;22.27;33.20;98797.56;5135286;27;20501;-63
2022/04/12 10:36:56;;;;;;;14.30;9.93;;;;;;;22.29;33.35;98799.00;5135601;27;20038;-63
2022/04/12 10:39:29;;;;;;;18.27;10.82;;;;;;;22.28;33.24;98808.13;5122231;27;20077;-65
2022/04/12 10:41:57;;;;;;;17.75;10.13;;;;;;;22.30;33.18;98813.28;5121128;27;20483;-64
2022/04/12 10:44:22;;;;;;;14.63;10.55;;;;;;;22.31;33.04;98796.09;5114788;28;20036;-63
2022/04/12 10:46:52;;;;;;;17.90;10.02;;;;;;;22.32;33.20;98795.88;5134443;27;20558;-63
2022/04/12 10:49:21;;;;;;;13.15;9.45;;;;;;;22.36;33.02;98802.47;5131953;27;20035;-63
2022/04/12 10:51:59;;;;;;;15.30;9.73;;;;;;;22.39;33.23;98801.25;5120086;27;20035;-63
2022/04/12 10:54:29;;;;;;;20.08;10.40;;;;;;;22.38;33.04;98800.41;5119426;27;20042;-63
2022/04/12 10:57:21;;;;;;;15.55;10.38;;;;;;;22.38;32.95;98797.69;5116340;27;20084;-62
2022/04/12 10:59:51;;;;;;;18.50;8.48;;;;;;;22.37;33.01;98785.25;5115704;27;20031;-62
2022/04/12 11:02:16;;;;;;;13.10;9.65;;;;;;;22.39;33.00;98782.38;5125503;27;20547;-65
2022/04/12 11:04:42;;;;;;;15.85;9.88;;;;;;;22.37;33.00;98781.75;5114655;27;20119;-63
2022/04/12 11:07:08;;;;;;;16.52;9.95;;;;;;;22.38;33.00;98783.41;5118219;27;20083;-62
2022/04/12 11:09:33;;;;;;;14.00;9.95;;;;;;;22.39;33.06;98774.28;5119192;27;20520;-62
2022/04/12 11:12:01;;;;;;;17.60;9.88;;;;;;;22.39;33.13;98780.50;5119693;27;20035;-64
2022/04/12 11:14:33;;;;;;;15.35;8.60;;;;;;;22.40;33.25;98784.84;5127255;27;20087;-65
2022/04/12 11:17:01;;;;;;;12.90;8.55;;;;;;;22.42;33.33;98784.66;5120280;27;20043;-62
2022/04/12 11:19:28;;;;;;;12.77;8.85;;;;;;;22.43;33.25;98780.91;5123386;27;20084;-63
2022/04/12 11:21:56;;;;;;;15.57;8.70;;;;;;;22.44;33.28;98771.78;5127250;27;20379;-63
2022/04/12 11:24:22;;;;;;;12.05;8.77;;;;;;;22.46;33.15;98775.09;5124666;27;20117;-63
2022/04/12 11:27:03;;;;;;;17.30;8.45;;;;;;;22.46;33.25;98767.00;5124710;27;20486;-63
2022/04/12 11:29:29;;;;;;;14.32;8.38;;;;;;;22.46;33.16;98775.09;5116238;27;20071;-63
2022/04/12 11:31:57;;;;;;;13.45;9.23;;;;;;;22.46;33.07;98767.00;5116049;27;20118;-63
2022/04/12 11:34:24;;;;;;;27.10;10.57;;;;;;;22.44;33.06;98766.38;5132602;27;20039;-66
2022/04/12 11:36:51;;;;;;;14.27;8.30;;;;;;;22.45;33.22;98765.34;5123935;27;20059;-61
2022/04/12 11:39:25;;;;;;;13.05;8.45;;;;;;;22.42;33.35;98773.88;5122829;27;20448;-65
2022/04/12 11:41:56;;;;;;;9.65;7.40;;;;;;;22.43;33.43;98767.44;5117007;27;20062;-62
2022/04/12 11:44:22;;;;;;;14.40;7.07;;;;;;;22.42;33.45;98768.50;5131753;27;20062;-63
2022/04/12 11:46:58;;;;;;;13.15;8.40;;;;;;;22.40;33.44;98757.88;5134158;27;20398;-63
2022/04/12 11:49:29;;;;;;;11.32;7.90;;;;;;;22.40;33.48;98763.28;5117868;27;20047;-63
2022/04/12 11:51:57;;;;;;;;;;;;;;;22.34;33.53;98771.41;5113845;28;20095;-64
2022/04/12 11:54:26;;;;;;;10.95;7.10;;;;;;;22.37;33.46;98765.59;5110220;27;20048;-63